createdAt,value
2018-06-05T00:00:55.173Z,0
2018-06-05T00:01:54.893Z,0
2018-06-05T00:02:55.444Z,0
2018-06-05T00:03:55.444Z,0
2018-06-05T00:04:55.474Z,0
2018-06-05T00:05:54.912Z,0
2018-06-05T00:06:55.714Z,0
2018-06-05T00:07:55.444Z,0
2018-06-05T00:08:55.161Z,0
2018-06-05T00:09:55.706Z,0
2018-06-05T00:10:55.460Z,0
2018-06-05T00:11:55.437Z,0
2018-06-05T00:12:55.508Z,0
2018-06-05T00:13:55.440Z,0
2018-06-05T00:14:55.185Z,0
2018-06-05T00:15:55.178Z,0
2018-06-05T00:16:55.187Z,0
2018-06-05T00:17:55.481Z,0
2018-06-05T00:18:55.490Z,0
2018-06-05T00:19:55.231Z,0
2018-06-05T00:20:55.207Z,0
2018-06-05T00:21:55.716Z,0
2018-06-05T00:22:55.465Z,0
2018-06-05T00:23:54.701Z,0
2018-06-05T00:24:55.459Z,0
2018-06-05T00:25:55.462Z,0
2018-06-05T00:26:55.541Z,0
2018-06-05T00:27:55.217Z,0
2018-06-05T00:28:54.951Z,0
2018-06-05T00:29:55.230Z,0
2018-06-05T00:30:55.229Z,0
2018-06-05T00:31:55.742Z,0
2018-06-05T00:32:55.239Z,0
2018-06-05T00:33:55.239Z,0
2018-06-05T00:34:55.783Z,0
2018-06-05T00:35:54.991Z,0
2018-06-05T00:36:55.246Z,0
2018-06-05T00:37:55.247Z,0
2018-06-05T00:38:55.495Z,0
2018-06-05T00:39:55.266Z,0
2018-06-05T00:40:55.254Z,0
2018-06-05T00:41:55.533Z,0
2018-06-05T00:42:55.521Z,0
2018-06-05T00:43:55.789Z,0
2018-06-05T00:44:55.512Z,0
2018-06-05T00:45:55.545Z,0
2018-06-05T00:46:55.263Z,0
2018-06-05T00:47:55.286Z,0
2018-06-05T00:48:55.275Z,0
2018-06-05T00:49:55.266Z,0
2018-06-05T00:50:55.292Z,0
2018-06-05T00:51:55.561Z,0
2018-06-05T00:52:55.827Z,0
2018-06-05T00:53:55.032Z,0
2018-06-05T00:54:55.540Z,0
2018-06-05T00:55:55.560Z,0
2018-06-05T00:56:55.846Z,0
2018-06-05T00:57:55.394Z,0
2018-06-05T00:58:55.545Z,0
2018-06-05T00:59:55.030Z,0
2018-06-05T01:00:55.564Z,0
2018-06-05T01:01:55.561Z,0
2018-06-05T01:02:55.547Z,0
2018-06-05T01:03:55.034Z,0
2018-06-05T01:04:55.824Z,0
2018-06-05T01:05:55.817Z,0
2018-06-05T01:06:55.594Z,0
2018-06-05T01:07:55.309Z,0
2018-06-05T01:08:54.791Z,0
2018-06-05T01:09:55.306Z,0
2018-06-05T01:10:55.570Z,0
2018-06-05T01:11:55.047Z,0
2018-06-05T01:12:55.067Z,0
2018-06-05T01:13:55.599Z,0
2018-06-05T01:14:55.326Z,0
2018-06-05T01:15:55.331Z,0
2018-06-05T01:16:55.320Z,0
2018-06-05T01:17:55.347Z,0
2018-06-05T01:18:55.327Z,0
2018-06-05T01:19:55.596Z,0
2018-06-05T01:20:55.599Z,0
2018-06-05T01:21:55.076Z,0
2018-06-05T01:22:55.331Z,0
2018-06-05T01:23:55.082Z,0
2018-06-05T01:24:55.345Z,0
2018-06-05T01:25:55.617Z,0
2018-06-05T01:26:55.855Z,0
2018-06-05T01:27:55.120Z,0
2018-06-05T01:28:55.621Z,0
2018-06-05T01:29:55.367Z,0
2018-06-05T01:30:55.882Z,0
2018-06-05T01:31:55.360Z,0
2018-06-05T01:32:55.655Z,0
2018-06-05T01:33:55.101Z,0
2018-06-05T01:34:55.356Z,0
2018-06-05T01:35:54.854Z,0
2018-06-05T01:36:55.658Z,0
2018-06-05T01:37:55.381Z,0
2018-06-05T01:38:55.658Z,0
2018-06-05T01:39:54.844Z,0
2018-06-05T01:40:55.657Z,0
2018-06-05T01:41:55.374Z,0
2018-06-05T01:42:55.622Z,0
2018-06-05T01:43:55.389Z,0
2018-06-05T01:44:55.897Z,0
2018-06-05T01:45:55.900Z,0
2018-06-05T01:46:55.897Z,0
2018-06-05T01:47:55.405Z,0
2018-06-05T01:48:55.399Z,0
2018-06-05T01:49:55.129Z,0
2018-06-05T01:50:55.674Z,0
2018-06-05T01:51:55.417Z,0
2018-06-05T01:52:55.927Z,0
2018-06-05T01:53:55.429Z,0
2018-06-05T01:54:55.412Z,0
2018-06-05T01:55:55.660Z,0
2018-06-05T01:56:55.406Z,0
2018-06-05T01:57:55.723Z,0
2018-06-05T01:58:55.421Z,0
2018-06-05T01:59:55.683Z,0
2018-06-05T02:00:55.672Z,0
2018-06-05T02:01:55.415Z,0
2018-06-05T02:02:54.899Z,0
2018-06-05T02:03:55.681Z,0
2018-06-05T02:04:55.418Z,0
2018-06-05T02:05:55.695Z,0
2018-06-05T02:06:55.715Z,0
2018-06-05T02:07:55.180Z,0
2018-06-05T02:08:55.937Z,0
2018-06-05T02:09:55.442Z,0
2018-06-05T02:10:55.428Z,0
2018-06-05T02:11:55.431Z,0
2018-06-05T02:12:55.426Z,0
2018-06-05T02:13:55.696Z,0
2018-06-05T02:14:55.180Z,0
2018-06-05T02:15:55.431Z,0
2018-06-05T02:16:55.952Z,0
2018-06-05T02:17:55.181Z,0
2018-06-05T02:18:55.434Z,0
2018-06-05T02:19:55.978Z,0
2018-06-05T02:20:55.456Z,0
2018-06-05T02:21:55.681Z,0
2018-06-05T02:22:55.447Z,0
2018-06-05T02:23:56.005Z,0
2018-06-05T02:24:54.934Z,0
2018-06-05T02:25:55.198Z,0
2018-06-05T02:26:55.468Z,0
2018-06-05T02:27:55.977Z,0
2018-06-05T02:28:55.744Z,0
2018-06-05T02:29:55.460Z,0
2018-06-05T02:30:55.757Z,0
2018-06-05T02:31:55.511Z,0
2018-06-05T02:32:55.474Z,0
2018-06-05T02:33:55.749Z,0
2018-06-05T02:34:55.736Z,0
2018-06-05T02:35:56.028Z,0
2018-06-05T02:36:56.012Z,0
2018-06-05T02:37:55.483Z,0
2018-06-05T02:38:55.531Z,0
2018-06-05T02:39:55.752Z,0
2018-06-05T02:40:55.499Z,0
2018-06-05T02:41:56.060Z,0
2018-06-05T02:42:55.744Z,0
2018-06-05T02:43:56.020Z,0
2018-06-05T02:44:55.245Z,0
2018-06-05T02:45:55.481Z,0
2018-06-05T02:46:55.500Z,0
2018-06-05T02:47:55.770Z,0
2018-06-05T02:48:55.489Z,0
2018-06-05T02:49:55.515Z,0
2018-06-05T02:50:55.815Z,0
2018-06-05T02:51:55.787Z,0
2018-06-05T02:52:55.758Z,0
2018-06-05T02:53:55.770Z,0
2018-06-05T02:54:56.068Z,0
2018-06-05T02:55:56.035Z,0
2018-06-05T02:56:55.826Z,0
2018-06-05T02:57:56.047Z,0
2018-06-05T02:58:55.771Z,0
2018-06-05T02:59:56.038Z,0
2018-06-05T03:00:55.520Z,0
2018-06-05T03:01:55.803Z,0
2018-06-05T03:02:55.306Z,0
2018-06-05T03:03:56.053Z,0
2018-06-05T03:04:56.033Z,0
2018-06-05T03:05:55.516Z,0
2018-06-05T03:06:56.075Z,0
2018-06-05T03:07:55.785Z,0
2018-06-05T03:08:56.052Z,0
2018-06-05T03:09:55.800Z,0
2018-06-05T03:10:55.544Z,0
2018-06-05T03:11:55.820Z,0
2018-06-05T03:12:55.281Z,0
2018-06-05T03:13:55.795Z,0
2018-06-05T03:14:55.537Z,0
2018-06-05T03:15:55.541Z,0
2018-06-05T03:16:55.828Z,5
2018-06-05T03:17:55.801Z,5
2018-06-05T03:18:55.845Z,5
2018-06-05T03:19:55.812Z,5
2018-06-05T03:20:55.297Z,5
2018-06-05T03:21:56.054Z,5
2018-06-05T03:22:55.807Z,5
2018-06-05T03:23:55.954Z,5
2018-06-05T03:24:55.555Z,5
2018-06-05T03:25:55.566Z,5
2018-06-05T03:26:55.814Z,10
2018-06-05T03:27:55.575Z,10
2018-06-05T03:28:56.102Z,10
2018-06-05T03:29:55.571Z,10
2018-06-05T03:30:56.097Z,10
2018-06-05T03:31:55.577Z,10
2018-06-05T03:32:55.819Z,15
2018-06-05T03:33:55.332Z,15
2018-06-05T03:34:55.307Z,15
2018-06-05T03:35:55.833Z,15
2018-06-05T03:36:55.838Z,20
2018-06-05T03:37:55.830Z,20
2018-06-05T03:38:55.839Z,20
2018-06-05T03:39:55.833Z,20
2018-06-05T03:40:55.998Z,25
2018-06-05T03:41:56.111Z,25
2018-06-05T03:42:56.105Z,25
2018-06-05T03:43:55.334Z,25
2018-06-05T03:44:56.118Z,25
2018-06-05T03:45:55.886Z,25
2018-06-05T03:46:55.842Z,30
2018-06-05T03:47:56.122Z,30
2018-06-05T03:48:55.585Z,35
2018-06-05T03:49:55.329Z,35
2018-06-05T03:50:55.606Z,35
2018-06-05T03:51:55.579Z,40
2018-06-05T03:52:56.098Z,45
2018-06-05T03:53:55.857Z,55
2018-06-05T03:54:55.615Z,70
2018-06-05T03:55:55.623Z,70
2018-06-05T03:56:55.960Z,70
2018-06-05T03:57:55.613Z,75
2018-06-05T03:58:55.653Z,65
2018-06-05T03:59:55.897Z,65
2018-06-05T04:00:56.187Z,65
2018-06-05T04:01:55.677Z,65
2018-06-05T04:02:55.633Z,65
2018-06-05T04:03:55.677Z,60
2018-06-05T04:04:55.690Z,60
2018-06-05T04:05:56.144Z,75
2018-06-05T04:06:55.382Z,85
2018-06-05T04:07:56.181Z,85
2018-06-05T04:08:55.683Z,85
2018-06-05T04:09:56.209Z,85
2018-06-05T04:10:55.929Z,90
2018-06-05T04:11:55.925Z,100
2018-06-05T04:12:55.448Z,110
2018-06-05T04:13:55.637Z,125
2018-06-05T04:14:55.903Z,125
2018-06-05T04:15:56.172Z,135
2018-06-05T04:16:55.924Z,135
2018-06-05T04:17:55.687Z,140
2018-06-05T04:18:55.946Z,145
2018-06-05T04:19:56.180Z,145
2018-06-05T04:20:55.915Z,150
2018-06-05T04:21:55.691Z,150
2018-06-05T04:22:55.951Z,155
2018-06-05T04:23:55.931Z,155
2018-06-05T04:24:55.935Z,155
2018-06-05T04:25:55.937Z,160
2018-06-05T04:26:55.967Z,160
2018-06-05T04:27:55.940Z,160
2018-06-05T04:28:55.935Z,160
2018-06-05T04:29:55.961Z,160
2018-06-05T04:30:55.438Z,145
2018-06-05T04:31:55.727Z,115
2018-06-05T04:32:55.706Z,95
2018-06-05T04:33:55.452Z,90
2018-06-05T04:34:55.726Z,90
2018-06-05T04:35:55.981Z,90
2018-06-05T04:36:55.740Z,90
2018-06-05T04:37:55.752Z,90
2018-06-05T04:38:56.257Z,90
2018-06-05T04:39:55.488Z,90
2018-06-05T04:40:55.748Z,90
2018-06-05T04:41:55.500Z,95
2018-06-05T04:42:56.342Z,95
2018-06-05T04:43:56.005Z,95
2018-06-05T04:44:55.761Z,100
2018-06-05T04:45:55.754Z,100
2018-06-05T04:46:56.278Z,105
2018-06-05T04:47:56.505Z,125
2018-06-05T04:48:56.030Z,115
2018-06-05T04:49:56.042Z,115
2018-06-05T04:50:56.100Z,105
2018-06-05T04:51:56.033Z,110
2018-06-05T04:52:56.042Z,130
2018-06-05T04:53:56.056Z,125
2018-06-05T04:54:56.066Z,120
2018-06-05T04:55:56.313Z,110
2018-06-05T04:56:55.820Z,110
2018-06-05T04:57:56.107Z,115
2018-06-05T04:58:56.079Z,115
2018-06-05T04:59:56.341Z,115
2018-06-05T05:00:55.822Z,120
2018-06-05T05:01:55.809Z,125
2018-06-05T05:02:56.071Z,130
2018-06-05T05:03:56.084Z,125
2018-06-05T05:04:56.344Z,125
2018-06-05T05:05:56.160Z,125
2018-06-05T05:06:56.104Z,130
2018-06-05T05:07:55.834Z,130
2018-06-05T05:08:56.106Z,135
2018-06-05T05:09:55.840Z,135
2018-06-05T05:10:55.890Z,135
2018-06-05T05:11:56.144Z,140
2018-06-05T05:12:55.607Z,150
2018-06-05T05:13:55.602Z,145
2018-06-05T05:14:55.602Z,145
2018-06-05T05:15:55.869Z,150
2018-06-05T05:16:55.867Z,150
2018-06-05T05:17:56.400Z,150
2018-06-05T05:18:55.621Z,150
2018-06-05T05:19:56.411Z,150
2018-06-05T05:20:55.866Z,150
2018-06-05T05:21:56.403Z,160
2018-06-05T05:22:56.128Z,160
2018-06-05T05:23:55.895Z,150
2018-06-05T05:24:55.911Z,150
2018-06-05T05:25:55.901Z,150
2018-06-05T05:26:56.161Z,150
2018-06-05T05:27:55.896Z,150
2018-06-05T05:28:56.174Z,160
2018-06-05T05:29:55.896Z,170
2018-06-05T05:30:56.811Z,175
2018-06-05T05:31:55.907Z,285
2018-06-05T05:32:55.911Z,170
2018-06-05T05:33:56.451Z,165
2018-06-05T05:34:55.688Z,170
2018-06-05T05:35:56.391Z,170
2018-06-05T05:36:56.173Z,175
2018-06-05T05:37:55.945Z,180
2018-06-05T05:38:56.234Z,180
2018-06-05T05:39:55.928Z,280
2018-06-05T05:40:55.672Z,175
2018-06-05T05:41:56.189Z,175
2018-06-05T05:42:55.929Z,185
2018-06-05T05:43:56.202Z,175
2018-06-05T05:44:55.418Z,175
2018-06-05T05:45:56.219Z,170
2018-06-05T05:46:55.957Z,165
2018-06-05T05:47:55.985Z,165
2018-06-05T05:48:55.954Z,165
2018-06-05T05:49:56.231Z,170
2018-06-05T05:50:56.224Z,165
2018-06-05T05:51:56.243Z,165
2018-06-05T05:52:55.958Z,165
2018-06-05T05:53:55.966Z,170
2018-06-05T05:54:56.969Z,170
2018-06-05T05:55:56.529Z,170
2018-06-05T05:56:56.262Z,175
2018-06-05T05:57:56.283Z,175
2018-06-05T05:58:56.024Z,175
2018-06-05T05:59:56.022Z,180
2018-06-05T06:00:56.058Z,185
2018-06-05T06:01:56.309Z,190
2018-06-05T06:02:56.268Z,185
2018-06-05T06:03:56.388Z,180
2018-06-05T06:04:56.030Z,185
2018-06-05T06:05:56.018Z,180
2018-06-05T06:06:56.553Z,185
2018-06-05T06:07:55.522Z,185
2018-06-05T06:08:56.295Z,185
2018-06-05T06:09:56.024Z,190
2018-06-05T06:10:56.511Z,195
2018-06-05T06:11:56.304Z,190
2018-06-05T06:12:56.570Z,195
2018-06-05T06:13:55.794Z,195
2018-06-05T06:24:01.250Z,410
2018-06-05T06:25:00.994Z,405
2018-06-05T06:26:01.433Z,410
2018-06-05T06:27:01.722Z,415
2018-06-05T06:28:01.267Z,410
2018-06-05T06:29:01.512Z,410
2018-06-05T06:30:00.997Z,415
2018-06-05T06:31:01.534Z,415
2018-06-05T06:32:01.009Z,425
2018-06-05T06:33:01.295Z,415
2018-06-05T06:34:01.025Z,415
2018-06-05T06:35:01.303Z,415
2018-06-05T06:36:01.307Z,420
2018-06-05T06:37:01.097Z,415
2018-06-05T06:38:01.575Z,415
2018-06-05T06:39:01.316Z,425
2018-06-05T06:40:01.328Z,420
2018-06-05T06:41:01.072Z,430
2018-06-05T06:42:01.104Z,425
2018-06-05T06:43:01.104Z,425
2018-06-05T06:44:01.404Z,420
2018-06-05T06:45:01.374Z,420
2018-06-05T06:46:01.387Z,420
2018-06-05T06:47:00.875Z,420
2018-06-05T06:48:00.886Z,420
2018-06-05T06:49:01.865Z,415
2018-06-05T06:50:01.404Z,410
2018-06-05T06:51:01.679Z,415
2018-06-05T06:52:01.702Z,415
2018-06-05T06:53:01.192Z,415
2018-06-05T06:54:01.465Z,415
2018-06-05T06:55:01.214Z,415
2018-06-05T06:56:01.205Z,415
2018-06-05T06:57:01.268Z,410
2018-06-05T06:58:01.287Z,415
2018-06-05T06:59:01.485Z,400
2018-06-05T07:00:00.993Z,400
2018-06-05T07:01:01.515Z,395
2018-06-05T07:02:01.266Z,390
2018-06-05T07:03:01.509Z,385
2018-06-05T07:04:01.512Z,365
2018-06-05T07:05:01.534Z,360
2018-06-05T07:06:01.542Z,365
2018-06-05T07:07:01.291Z,365
2018-06-05T07:08:01.295Z,360
2018-06-05T07:09:01.842Z,365
2018-06-05T07:10:01.570Z,380
2018-06-05T07:11:01.592Z,380
2018-06-05T07:12:01.343Z,370
2018-06-05T07:13:01.610Z,370
2018-06-05T07:14:00.897Z,380
2018-06-05T07:15:01.119Z,390
2018-06-05T07:16:01.138Z,395
2018-06-05T07:17:01.384Z,400
2018-06-05T07:18:01.386Z,400
2018-06-05T07:19:01.153Z,400
2018-06-05T07:20:01.669Z,400
2018-06-05T07:21:01.407Z,405
2018-06-05T07:22:01.984Z,400
2018-06-05T07:23:01.464Z,400
2018-06-05T07:24:01.274Z,405
2018-06-05T07:25:01.728Z,405
2018-06-05T07:26:01.476Z,405
2018-06-05T07:27:01.473Z,400
2018-06-05T07:28:01.732Z,405
2018-06-05T07:29:01.478Z,395
2018-06-05T07:30:01.247Z,390
2018-06-05T07:31:01.780Z,400
2018-06-05T07:32:01.533Z,405
2018-06-05T07:33:01.537Z,410
2018-06-05T07:34:02.100Z,415
2018-06-05T07:35:01.543Z,415
2018-06-05T07:36:02.147Z,410
2018-06-05T07:37:01.854Z,410
2018-06-05T07:38:01.670Z,410
2018-06-05T07:39:01.853Z,405
2018-06-05T07:40:01.625Z,405
2018-06-05T07:41:01.090Z,400
2018-06-05T07:42:01.899Z,395
2018-06-05T07:43:01.617Z,395
2018-06-05T07:44:01.810Z,395
2018-06-05T07:45:01.931Z,400
2018-06-05T07:46:01.932Z,400
2018-06-05T07:47:01.684Z,400
2018-06-05T07:48:01.936Z,405
2018-06-05T07:49:01.727Z,405
2018-06-05T07:50:01.806Z,405
2018-06-05T07:51:01.713Z,405
2018-06-05T07:52:02.227Z,405
2018-06-05T07:53:01.982Z,410
2018-06-05T07:54:02.015Z,410
2018-06-05T07:55:01.996Z,405
2018-06-05T07:56:02.259Z,405
2018-06-05T07:57:02.286Z,405
2018-06-05T07:58:02.291Z,405
2018-06-05T07:59:01.792Z,410
2018-06-05T08:00:01.535Z,400
2018-06-05T08:01:01.550Z,395
2018-06-05T08:02:02.076Z,395
2018-06-05T08:03:02.085Z,395
2018-06-05T08:04:01.830Z,390
2018-06-05T08:05:01.847Z,390
2018-06-05T08:06:01.857Z,390
2018-06-05T08:07:02.379Z,385
2018-06-05T08:08:02.389Z,390
2018-06-05T08:09:01.950Z,390
2018-06-05T08:10:01.894Z,390
2018-06-05T08:11:01.905Z,385
2018-06-05T08:12:01.981Z,385
2018-06-05T08:13:02.184Z,385
2018-06-05T08:14:07.573Z,380
2018-06-05T08:15:02.308Z,380
2018-06-05T08:16:02.222Z,380
2018-06-05T08:17:02.273Z,380
2018-06-05T08:18:01.482Z,380
2018-06-05T08:19:01.741Z,385
2018-06-05T08:20:01.770Z,380
2018-06-05T08:21:02.308Z,375
2018-06-05T08:22:02.013Z,380
2018-06-05T08:23:02.337Z,375
2018-06-05T08:24:02.042Z,370
2018-06-05T08:25:02.610Z,370
2018-06-05T08:26:02.316Z,370
2018-06-05T08:27:01.819Z,365
2018-06-05T08:28:01.827Z,365
2018-06-05T08:29:03.192Z,365
2018-06-05T08:30:02.363Z,365
2018-06-05T08:31:01.862Z,365
2018-06-05T08:32:02.404Z,365
2018-06-05T08:33:02.662Z,365
2018-06-05T08:34:01.888Z,360
2018-06-05T08:35:01.902Z,360
2018-06-05T08:36:02.707Z,355
2018-06-05T08:37:02.723Z,355
2018-06-05T08:38:02.879Z,355
2018-06-05T08:39:02.205Z,355
2018-06-05T08:40:02.202Z,355
2018-06-05T08:41:01.960Z,360
2018-06-05T08:42:01.964Z,350
2018-06-05T08:43:01.984Z,350
2018-06-05T08:44:02.497Z,350
2018-06-05T08:45:02.512Z,350
2018-06-05T08:46:02.546Z,345
2018-06-05T08:47:02.286Z,345
2018-06-05T08:48:02.277Z,345
2018-06-05T08:49:02.566Z,345
2018-06-05T08:50:02.570Z,345
2018-06-05T08:51:02.346Z,345
2018-06-05T08:52:02.304Z,345
2018-06-05T08:53:02.067Z,345
2018-06-05T08:54:02.654Z,340
2018-06-05T08:55:02.639Z,340
2018-06-05T08:56:02.622Z,340
2018-06-05T08:57:02.387Z,345
2018-06-05T08:58:02.398Z,340
2018-06-05T08:59:02.392Z,340
2018-06-05T09:00:02.896Z,340
2018-06-05T09:01:02.433Z,335
2018-06-05T09:02:02.415Z,340
2018-06-05T09:03:02.457Z,335
2018-06-05T09:04:02.460Z,325
2018-06-05T09:05:02.465Z,320
2018-06-05T09:06:02.220Z,320
2018-06-05T09:07:02.460Z,315
2018-06-05T09:08:02.211Z,320
2018-06-05T09:09:02.213Z,315
2018-06-05T09:10:02.750Z,315
2018-06-05T09:11:03.145Z,315
2018-06-05T09:12:02.496Z,315
2018-06-05T09:13:02.916Z,315
2018-06-05T09:14:02.257Z,315
2018-06-05T09:15:02.257Z,315
2018-06-05T09:16:02.793Z,320
2018-06-05T09:17:02.800Z,315
2018-06-05T09:18:02.820Z,310
2018-06-05T09:19:02.806Z,315
2018-06-05T09:20:02.829Z,315
2018-06-05T09:21:02.821Z,310
2018-06-05T09:22:02.595Z,310
2018-06-05T09:23:02.580Z,315
2018-06-05T09:24:03.111Z,310
2018-06-05T09:25:02.856Z,310
2018-06-05T09:26:02.597Z,310
2018-06-05T09:27:02.862Z,310
2018-06-05T09:28:02.853Z,310
2018-06-05T09:29:02.748Z,315
2018-06-05T09:30:02.378Z,310
2018-06-05T09:31:02.875Z,310
2018-06-05T09:32:02.897Z,310
2018-06-05T09:33:02.629Z,310
2018-06-05T09:34:02.953Z,310
2018-06-05T09:35:02.435Z,310
2018-06-05T09:36:02.413Z,310
2018-06-05T09:37:02.386Z,315
2018-06-05T09:38:02.685Z,310
2018-06-05T09:39:03.283Z,310
2018-06-05T09:40:04.022Z,310
2018-06-05T09:41:02.706Z,310
2018-06-05T09:42:02.966Z,310
2018-06-05T09:43:03.225Z,310
2018-06-05T09:44:02.974Z,310
2018-06-05T09:45:02.972Z,310
2018-06-05T09:46:02.986Z,305
2018-06-05T09:47:03.520Z,310
2018-06-05T09:48:02.988Z,305
2018-06-05T09:49:02.999Z,305
2018-06-05T09:50:03.030Z,305
2018-06-05T09:51:02.771Z,305
2018-06-05T09:52:03.124Z,305
2018-06-05T09:53:03.029Z,305
2018-06-05T09:54:02.538Z,305
2018-06-05T09:55:03.044Z,305
2018-06-05T09:56:03.328Z,300
2018-06-05T09:57:03.082Z,300
2018-06-05T09:58:03.183Z,300
2018-06-05T09:59:02.564Z,300
2018-06-05T10:00:02.298Z,300
2018-06-05T10:01:02.813Z,295
2018-06-05T10:02:02.820Z,295
2018-06-05T10:03:03.083Z,295
2018-06-05T10:04:03.307Z,295
2018-06-05T10:05:03.383Z,290
2018-06-05T10:06:02.843Z,290
2018-06-05T10:07:03.120Z,290
2018-06-05T10:08:02.619Z,290
2018-06-05T10:09:03.158Z,290
2018-06-05T10:10:02.969Z,285
2018-06-05T10:11:02.613Z,290
2018-06-05T10:12:02.885Z,285
2018-06-05T10:13:03.132Z,285
2018-06-05T10:14:02.681Z,290
2018-06-05T10:15:03.460Z,285
2018-06-05T10:16:02.922Z,280
2018-06-05T10:17:03.449Z,280
2018-06-05T10:18:02.924Z,280
2018-06-05T10:19:03.472Z,280
2018-06-05T10:20:02.940Z,280
2018-06-05T10:21:02.687Z,275
2018-06-05T10:22:03.474Z,280
2018-06-05T10:53:25.639Z,270
2018-06-05T10:54:25.920Z,275
2018-06-05T10:55:25.899Z,280
2018-06-05T10:56:25.686Z,280
2018-06-05T10:57:25.660Z,285
2018-06-05T10:58:25.404Z,285
2018-06-05T10:59:25.661Z,285
2018-06-05T11:00:26.381Z,290
2018-06-05T11:01:26.000Z,300
2018-06-05T11:02:26.205Z,300
2018-06-05T11:03:25.957Z,300
2018-06-05T11:04:25.975Z,305
2018-06-05T11:05:25.708Z,305
2018-06-05T11:06:25.717Z,310
2018-06-05T11:07:26.249Z,310
2018-06-05T11:08:25.478Z,315
2018-06-05T11:09:25.755Z,315
2018-06-05T11:10:25.725Z,310
2018-06-05T11:11:26.071Z,310
2018-06-05T11:12:25.735Z,310
2018-06-05T11:13:26.030Z,310
2018-06-05T11:14:25.746Z,315
2018-06-05T11:15:25.770Z,325
2018-06-05T11:16:25.892Z,325
2018-06-05T11:17:26.026Z,330
2018-06-05T11:18:26.233Z,335
2018-06-05T11:19:26.277Z,335
2018-06-05T11:20:26.316Z,335
2018-06-05T11:21:25.863Z,335
2018-06-05T11:22:25.799Z,335
2018-06-05T11:23:26.407Z,340
2018-06-05T11:24:26.328Z,345
2018-06-05T11:25:26.325Z,310
2018-06-05T11:26:26.223Z,295
2018-06-05T11:27:26.081Z,330
2018-06-05T11:28:26.119Z,365
2018-06-05T11:29:26.379Z,300
2018-06-05T11:30:26.104Z,315
2018-06-05T11:31:25.894Z,350
2018-06-05T11:32:25.355Z,350
2018-06-05T11:33:25.909Z,350
2018-06-05T11:34:25.883Z,350
2018-06-05T11:35:26.148Z,360
2018-06-05T11:36:25.897Z,350
2018-06-05T11:37:26.173Z,360
2018-06-05T11:38:26.169Z,330
2018-06-05T11:39:26.183Z,285
2018-06-05T11:40:25.922Z,295
2018-06-05T11:41:25.666Z,325
2018-06-05T11:42:25.435Z,315
2018-06-05T11:43:26.201Z,310
2018-06-05T11:44:26.457Z,255
2018-06-05T11:45:25.963Z,255
2018-06-05T11:46:25.516Z,255
2018-06-05T11:47:25.958Z,260
2018-06-05T11:48:26.492Z,300
2018-06-05T11:49:25.705Z,310
2018-06-05T11:50:26.223Z,320
2018-06-05T11:51:25.731Z,325
2018-06-05T11:52:26.259Z,325
2018-06-05T11:53:26.324Z,325
2018-06-05T11:54:26.073Z,295
2018-06-05T11:55:26.259Z,310
2018-06-05T11:56:26.394Z,290
2018-06-05T11:57:26.061Z,315
2018-06-05T11:58:25.519Z,260
2018-06-05T11:59:26.309Z,255
2018-06-05T12:00:26.581Z,305
2018-06-05T12:01:26.329Z,315
2018-06-05T12:02:26.327Z,310
2018-06-05T12:03:26.342Z,310
2018-06-05T12:04:26.060Z,315
2018-06-05T12:05:26.337Z,325
2018-06-05T12:06:26.074Z,325
2018-06-05T12:07:26.350Z,325
2018-06-05T12:08:25.859Z,330
2018-06-05T12:09:25.846Z,330
2018-06-05T12:10:26.367Z,330
2018-06-05T12:11:26.683Z,325
2018-06-05T12:12:26.650Z,325
2018-06-05T12:13:27.479Z,325
2018-06-05T12:14:26.147Z,330
2018-06-05T12:15:26.144Z,325
2018-06-05T12:16:26.469Z,315
2018-06-05T12:17:25.890Z,310
2018-06-05T12:18:26.167Z,305
2018-06-05T12:19:26.434Z,305
2018-06-05T12:20:25.913Z,290
2018-06-05T12:21:26.290Z,300
2018-06-05T12:22:26.177Z,300
2018-06-05T12:23:25.967Z,300
2018-06-05T12:24:26.447Z,305
2018-06-05T12:25:26.509Z,290
2018-06-05T12:26:26.546Z,260
2018-06-05T12:27:26.485Z,260
2018-06-05T12:28:26.496Z,255
2018-06-05T12:29:26.513Z,255
2018-06-05T12:30:26.239Z,250
2018-06-05T12:31:26.781Z,245
2018-06-05T12:32:26.011Z,240
2018-06-05T12:33:26.008Z,245
2018-06-05T12:34:26.842Z,245
2018-06-05T12:35:26.265Z,245
2018-06-05T12:36:26.890Z,245
2018-06-05T12:37:26.284Z,245
2018-06-05T12:38:26.291Z,250
2018-06-05T12:39:26.036Z,255
2018-06-05T12:40:26.132Z,255
2018-06-05T12:41:26.892Z,260
2018-06-05T12:42:26.839Z,260
2018-06-05T12:43:26.599Z,275
2018-06-05T12:44:26.355Z,275
2018-06-05T12:45:26.607Z,280
2018-06-05T12:46:26.609Z,325
2018-06-05T12:47:26.092Z,330
2018-06-05T12:48:26.355Z,330
2018-06-05T12:49:26.362Z,330
2018-06-05T12:50:25.839Z,330
2018-06-05T12:51:26.917Z,335
2018-06-05T12:52:26.760Z,335
2018-06-05T12:53:26.778Z,340
2018-06-05T12:54:26.660Z,315
2018-06-05T12:55:26.388Z,335
2018-06-05T12:56:26.515Z,335
2018-06-05T12:57:25.903Z,335
2018-06-05T12:58:26.686Z,345
2018-06-05T12:59:26.701Z,365
2018-06-05T13:00:26.430Z,340
2018-06-05T13:01:26.479Z,345
2018-06-05T13:02:26.177Z,340
2018-06-05T13:03:26.958Z,335
2018-06-05T13:04:26.450Z,325
2018-06-05T13:05:27.147Z,315
2018-06-05T13:06:26.269Z,310
2018-06-05T13:07:27.008Z,305
2018-06-05T13:08:26.786Z,300
2018-06-05T13:09:26.778Z,300
2018-06-05T13:10:26.232Z,290
2018-06-05T13:11:26.327Z,280
2018-06-05T13:12:26.510Z,270
2018-06-05T13:13:27.022Z,260
2018-06-05T13:14:26.787Z,280
2018-06-05T13:15:26.797Z,245
2018-06-05T13:16:26.677Z,245
2018-06-05T13:17:27.380Z,240
2018-06-05T13:18:26.818Z,240
2018-06-05T13:19:26.543Z,240
2018-06-05T13:20:26.300Z,240
2018-06-05T13:21:26.908Z,230
2018-06-05T13:22:26.828Z,220
2018-06-05T13:23:27.382Z,210
2018-06-05T13:24:26.583Z,210
2018-06-05T13:25:26.888Z,210
2018-06-05T13:26:26.838Z,205
2018-06-05T13:27:26.605Z,210
2018-06-05T13:28:26.610Z,220
2018-06-05T13:29:26.932Z,225
2018-06-05T13:30:26.636Z,230
2018-06-05T13:31:26.787Z,235
2018-06-05T13:32:26.894Z,240
2018-06-05T13:33:26.883Z,240
2018-06-05T13:34:27.165Z,245
2018-06-05T13:35:26.636Z,255
2018-06-05T13:36:27.196Z,260
2018-06-05T13:37:26.953Z,270
2018-06-05T13:38:26.147Z,285
2018-06-05T13:39:26.674Z,285
2018-06-05T13:40:26.951Z,300
2018-06-05T13:41:26.772Z,285
2018-06-05T13:42:27.010Z,285
2018-06-05T13:43:26.947Z,295
2018-06-05T13:44:26.956Z,300
2018-06-05T13:45:27.006Z,300
2018-06-05T13:46:26.757Z,295
2018-06-05T13:47:26.986Z,295
2018-06-05T13:48:26.709Z,295
2018-06-05T13:49:26.728Z,300
2018-06-05T13:50:27.252Z,300
2018-06-05T13:51:27.016Z,300
2018-06-05T13:52:27.137Z,305
2018-06-05T13:53:26.756Z,295
2018-06-05T13:54:27.040Z,295
2018-06-05T13:55:26.502Z,315
2018-06-05T13:56:27.054Z,300
2018-06-05T13:57:26.511Z,295
2018-06-05T13:58:26.772Z,295
2018-06-05T13:59:27.060Z,285
2018-06-05T14:00:27.321Z,290
2018-06-05T14:01:27.338Z,285
2018-06-05T14:02:26.802Z,285
2018-06-05T14:03:26.814Z,285
2018-06-05T14:04:27.074Z,290
2018-06-05T14:05:27.342Z,305
2018-06-05T14:06:27.189Z,305
2018-06-05T14:07:27.339Z,310
2018-06-05T14:08:26.882Z,315
2018-06-05T14:09:27.069Z,310
2018-06-05T14:10:27.395Z,305
2018-06-05T14:11:27.123Z,300
2018-06-05T14:12:27.406Z,295
2018-06-05T14:13:26.638Z,300
2018-06-05T14:14:26.887Z,305
2018-06-05T14:15:27.451Z,305
2018-06-05T14:16:27.179Z,300
2018-06-05T14:17:27.214Z,295
2018-06-05T14:18:27.158Z,295
2018-06-05T14:19:27.422Z,305
2018-06-05T14:20:27.174Z,300
2018-06-05T14:21:26.733Z,295
2018-06-05T14:22:27.001Z,275
2018-06-05T14:23:27.200Z,270
2018-06-05T14:24:27.205Z,265
2018-06-05T14:25:27.454Z,275
2018-06-05T14:26:27.003Z,265
2018-06-05T14:27:27.221Z,245
2018-06-05T14:28:27.220Z,240
2018-06-05T14:29:27.501Z,235
2018-06-05T14:30:27.494Z,230
2018-06-05T14:31:27.625Z,230
2018-06-05T14:32:27.259Z,220
2018-06-05T14:33:27.519Z,210
2018-06-05T14:34:27.015Z,205
2018-06-05T14:35:27.389Z,200
2018-06-05T14:36:27.560Z,195
2018-06-05T14:37:27.601Z,190
2018-06-05T14:38:27.287Z,200
2018-06-05T14:39:27.081Z,190
2018-06-05T14:40:27.560Z,185
2018-06-05T14:41:27.312Z,185
2018-06-05T14:42:27.335Z,185